sensor_id;sensor_type;location;lat;lon;timestamp;P1;durP1;ratioP1;P2;durP2;ratioP2
20890;SDS011;10605;52.968;8.844;2022-09-09T00:00:22;63.35;;;28.70;;
20890;SDS011;10605;52.968;8.844;2022-09-09T00:02:50;52.90;;;27.50;;
20890;SDS011;10605;52.968;8.844;2022-09-09T00:07:58;54.38;;;24.77;;
20890;SDS011;10605;52.968;8.844;2022-09-09T00:15:44;36.42;;;22.70;;
20890;SDS011;10605;52.968;8.844;2022-09-09T00:23:12;74.35;;;23.10;;
20890;SDS011;10605;52.968;8.844;2022-09-09T00:26:16;350.05;;;27.20;;
20890;SDS011;10605;52.968;8.844;2022-09-09T00:28:51;39.42;;;23.75;;
20890;SDS011;10605;52.968;8.844;2022-09-09T00:31:23;38.55;;;22.23;;
20890;SDS011;10605;52.968;8.844;2022-09-09T00:33:53;67.05;;;24.88;;
20890;SDS011;10605;52.968;8.844;2022-09-09T00:36:24;46.42;;;27.95;;
20890;SDS011;10605;52.968;8.844;2022-09-09T00:38:56;41.45;;;23.95;;
20890;SDS011;10605;52.968;8.844;2022-09-09T00:57:46;44.05;;;25.05;;
20890;SDS011;10605;52.968;8.844;2022-09-09T01:10:55;30.65;;;20.67;;
20890;SDS011;10605;52.968;8.844;2022-09-09T01:13:30;39.67;;;22.55;;
20890;SDS011;10605;52.968;8.844;2022-09-09T01:15:58;38.13;;;21.02;;
20890;SDS011;10605;52.968;8.844;2022-09-09T01:18:27;34.88;;;21.45;;
20890;SDS011;10605;52.968;8.844;2022-09-09T01:26:37;32.53;;;20.83;;
20890;SDS011;10605;52.968;8.844;2022-09-09T01:29:10;38.05;;;21.20;;
20890;SDS011;10605;52.968;8.844;2022-09-09T01:31:42;31.20;;;19.60;;
20890;SDS011;10605;52.968;8.844;2022-09-09T01:34:28;33.05;;;20.27;;
20890;SDS011;10605;52.968;8.844;2022-09-09T01:37:04;32.92;;;19.40;;
20890;SDS011;10605;52.968;8.844;2022-09-09T01:39:33;26.85;;;18.10;;
20890;SDS011;10605;52.968;8.844;2022-09-09T01:42:00;29.90;;;19.63;;
20890;SDS011;10605;52.968;8.844;2022-09-09T01:44:27;30.00;;;19.45;;
20890;SDS011;10605;52.968;8.844;2022-09-09T01:46:54;27.55;;;18.75;;
20890;SDS011;10605;52.968;8.844;2022-09-09T01:49:20;28.27;;;18.23;;
20890;SDS011;10605;52.968;8.844;2022-09-09T01:51:50;25.15;;;17.40;;
20890;SDS011;10605;52.968;8.844;2022-09-09T01:54:18;25.90;;;18.17;;
20890;SDS011;10605;52.968;8.844;2022-09-09T01:59:36;28.55;;;18.77;;
20890;SDS011;10605;52.968;8.844;2022-09-09T02:02:36;25.58;;;17.73;;
20890;SDS011;10605;52.968;8.844;2022-09-09T02:08:09;30.23;;;18.67;;
20890;SDS011;10605;52.968;8.844;2022-09-09T02:13:26;35.88;;;19.77;;
20890;SDS011;10605;52.968;8.844;2022-09-09T02:18:38;28.00;;;18.17;;
20890;SDS011;10605;52.968;8.844;2022-09-09T02:21:16;29.30;;;18.70;;
20890;SDS011;10605;52.968;8.844;2022-09-09T02:23:42;28.20;;;19.00;;
20890;SDS011;10605;52.968;8.844;2022-09-09T02:26:12;38.53;;;19.88;;
20890;SDS011;10605;52.968;8.844;2022-09-09T02:28:44;38.55;;;21.27;;
20890;SDS011;10605;52.968;8.844;2022-09-09T02:31:11;31.67;;;19.15;;
20890;SDS011;10605;52.968;8.844;2022-09-09T02:33:41;34.38;;;18.73;;
20890;SDS011;10605;52.968;8.844;2022-09-09T02:36:08;39.38;;;19.67;;
20890;SDS011;10605;52.968;8.844;2022-09-09T02:38:38;30.48;;;20.08;;
20890;SDS011;10605;52.968;8.844;2022-09-09T02:41:08;36.13;;;19.77;;
20890;SDS011;10605;52.968;8.844;2022-09-09T02:43:33;32.75;;;19.73;;
20890;SDS011;10605;52.968;8.844;2022-09-09T02:51:27;24.40;;;17.77;;
20890;SDS011;10605;52.968;8.844;2022-09-09T02:54:29;22.85;;;16.38;;
20890;SDS011;10605;52.968;8.844;2022-09-09T02:57:00;21.65;;;16.35;;
20890;SDS011;10605;52.968;8.844;2022-09-09T02:59:39;34.10;;;18.00;;
20890;SDS011;10605;52.968;8.844;2022-09-09T03:02:06;26.73;;;17.00;;
20890;SDS011;10605;52.968;8.844;2022-09-09T03:04:32;24.13;;;17.42;;
20890;SDS011;10605;52.968;8.844;2022-09-09T03:06:58;28.38;;;16.08;;
20890;SDS011;10605;52.968;8.844;2022-09-09T03:09:24;33.33;;;18.02;;
20890;SDS011;10605;52.968;8.844;2022-09-09T03:11:51;31.80;;;18.05;;
20890;SDS011;10605;52.968;8.844;2022-09-09T03:14:17;32.03;;;17.83;;
20890;SDS011;10605;52.968;8.844;2022-09-09T03:16:46;30.38;;;17.33;;
20890;SDS011;10605;52.968;8.844;2022-09-09T03:19:12;28.63;;;17.83;;
20890;SDS011;10605;52.968;8.844;2022-09-09T03:21:37;30.55;;;17.10;;
20890;SDS011;10605;52.968;8.844;2022-09-09T03:24:04;30.08;;;17.45;;
20890;SDS011;10605;52.968;8.844;2022-09-09T03:26:30;35.72;;;17.95;;
20890;SDS011;10605;52.968;8.844;2022-09-09T03:28:56;34.60;;;18.17;;
20890;SDS011;10605;52.968;8.844;2022-09-09T03:31:22;35.05;;;17.88;;
20890;SDS011;10605;52.968;8.844;2022-09-09T03:33:48;35.28;;;17.75;;
20890;SDS011;10605;52.968;8.844;2022-09-09T03:36:14;38.33;;;18.40;;
20890;SDS011;10605;52.968;8.844;2022-09-09T03:38:40;28.98;;;16.23;;
20890;SDS011;10605;52.968;8.844;2022-09-09T03:41:06;28.23;;;16.27;;
20890;SDS011;10605;52.968;8.844;2022-09-09T03:43:32;33.38;;;15.07;;
20890;SDS011;10605;52.968;8.844;2022-09-09T03:45:59;27.45;;;15.65;;
20890;SDS011;10605;52.968;8.844;2022-09-09T03:48:25;30.30;;;14.93;;
20890;SDS011;10605;52.968;8.844;2022-09-09T03:50:53;25.27;;;14.30;;
20890;SDS011;10605;52.968;8.844;2022-09-09T03:53:21;28.52;;;13.43;;
20890;SDS011;10605;52.968;8.844;2022-09-09T03:55:49;19.67;;;12.70;;
20890;SDS011;10605;52.968;8.844;2022-09-09T03:58:19;25.63;;;12.60;;
20890;SDS011;10605;52.968;8.844;2022-09-09T04:00:59;21.80;;;12.50;;
20890;SDS011;10605;52.968;8.844;2022-09-09T04:03:26;19.67;;;12.30;;
20890;SDS011;10605;52.968;8.844;2022-09-09T04:05:54;14.25;;;10.57;;
20890;SDS011;10605;52.968;8.844;2022-09-09T04:08:21;15.48;;;10.57;;
20890;SDS011;10605;52.968;8.844;2022-09-09T04:10:47;18.35;;;10.20;;
20890;SDS011;10605;52.968;8.844;2022-09-09T04:13:14;13.57;;;10.10;;
20890;SDS011;10605;52.968;8.844;2022-09-09T04:15:42;19.73;;;10.32;;
20890;SDS011;10605;52.968;8.844;2022-09-09T04:18:22;17.55;;;10.10;;
20890;SDS011;10605;52.968;8.844;2022-09-09T04:20:49;20.20;;;10.30;;
20890;SDS011;10605;52.968;8.844;2022-09-09T04:23:16;19.63;;;9.82;;
20890;SDS011;10605;52.968;8.844;2022-09-09T04:25:47;14.10;;;9.93;;
20890;SDS011;10605;52.968;8.844;2022-09-09T04:28:15;18.00;;;9.75;;
20890;SDS011;10605;52.968;8.844;2022-09-09T04:30:42;17.35;;;9.38;;
20890;SDS011;10605;52.968;8.844;2022-09-09T04:33:08;13.18;;;10.05;;
20890;SDS011;10605;52.968;8.844;2022-09-09T04:35:34;11.60;;;8.70;;
20890;SDS011;10605;52.968;8.844;2022-09-09T04:38:01;11.98;;;9.25;;
20890;SDS011;10605;52.968;8.844;2022-09-09T04:40:30;19.33;;;8.73;;
20890;SDS011;10605;52.968;8.844;2022-09-09T04:42:59;13.57;;;8.80;;
20890;SDS011;10605;52.968;8.844;2022-09-09T04:45:26;10.85;;;9.23;;
20890;SDS011;10605;52.968;8.844;2022-09-09T04:47:52;10.23;;;8.18;;
20890;SDS011;10605;52.968;8.844;2022-09-09T04:50:19;10.73;;;7.72;;
20890;SDS011;10605;52.968;8.844;2022-09-09T04:52:45;8.85;;;6.93;;
20890;SDS011;10605;52.968;8.844;2022-09-09T04:55:10;10.13;;;6.55;;
20890;SDS011;10605;52.968;8.844;2022-09-09T04:57:37;8.32;;;6.40;;
20890;SDS011;10605;52.968;8.844;2022-09-09T05:00:04;8.65;;;6.80;;
20890;SDS011;10605;52.968;8.844;2022-09-09T05:02:31;7.07;;;6.07;;
20890;SDS011;10605;52.968;8.844;2022-09-09T05:04:57;9.73;;;6.43;;
20890;SDS011;10605;52.968;8.844;2022-09-09T05:07:23;8.32;;;6.40;;
20890;SDS011;10605;52.968;8.844;2022-09-09T05:09:51;6.05;;;5.55;;
20890;SDS011;10605;52.968;8.844;2022-09-09T05:12:17;8.48;;;6.63;;
20890;SDS011;10605;52.968;8.844;2022-09-09T05:14:43;8.93;;;7.25;;
20890;SDS011;10605;52.968;8.844;2022-09-09T05:17:09;11.57;;;7.40;;
20890;SDS011;10605;52.968;8.844;2022-09-09T05:20:02;8.43;;;7.28;;
20890;SDS011;10605;52.968;8.844;2022-09-09T05:22:39;7.20;;;6.50;;
20890;SDS011;10605;52.968;8.844;2022-09-09T05:25:06;9.85;;;7.03;;
20890;SDS011;10605;52.968;8.844;2022-09-09T05:27:33;7.22;;;6.00;;
20890;SDS011;10605;52.968;8.844;2022-09-09T05:30:12;8.93;;;5.45;;
20890;SDS011;10605;52.968;8.844;2022-09-09T05:36:39;8.02;;;5.43;;
20890;SDS011;10605;52.968;8.844;2022-09-09T05:43:52;6.65;;;4.70;;
20890;SDS011;10605;52.968;8.844;2022-09-09T05:49:58;8.95;;;5.25;;
20890;SDS011;10605;52.968;8.844;2022-09-09T05:52:42;6.65;;;5.10;;
20890;SDS011;10605;52.968;8.844;2022-09-09T06:02:53;9.18;;;4.53;;
20890;SDS011;10605;52.968;8.844;2022-09-09T06:13:23;8.60;;;4.82;;
20890;SDS011;10605;52.968;8.844;2022-09-09T06:20:06;7.68;;;3.95;;
20890;SDS011;10605;52.968;8.844;2022-09-09T06:27:13;6.65;;;3.05;;
20890;SDS011;10605;52.968;8.844;2022-09-09T06:41:22;4.72;;;2.85;;
20890;SDS011;10605;52.968;8.844;2022-09-09T06:44:08;4.03;;;2.83;;
20890;SDS011;10605;52.968;8.844;2022-09-09T07:03:58;5.60;;;2.40;;
20890;SDS011;10605;52.968;8.844;2022-09-09T07:09:44;3.42;;;1.88;;
20890;SDS011;10605;52.968;8.844;2022-09-09T07:12:17;2.60;;;2.17;;
20890;SDS011;10605;52.968;8.844;2022-09-09T07:14:47;5.03;;;2.30;;
20890;SDS011;10605;52.968;8.844;2022-09-09T07:17:31;5.18;;;1.73;;
20890;SDS011;10605;52.968;8.844;2022-09-09T07:26:18;4.82;;;1.42;;
20890;SDS011;10605;52.968;8.844;2022-09-09T07:29:07;2.78;;;1.42;;
20890;SDS011;10605;52.968;8.844;2022-09-09T07:31:39;4.20;;;1.13;;
20890;SDS011;10605;52.968;8.844;2022-09-09T07:34:11;4.22;;;1.40;;
20890;SDS011;10605;52.968;8.844;2022-09-09T07:36:37;1.55;;;1.38;;
20890;SDS011;10605;52.968;8.844;2022-09-09T07:39:14;2.42;;;1.67;;
20890;SDS011;10605;52.968;8.844;2022-09-09T07:41:53;2.13;;;1.30;;
20890;SDS011;10605;52.968;8.844;2022-09-09T07:44:23;3.30;;;1.20;;
20890;SDS011;10605;52.968;8.844;2022-09-09T07:46:50;5.90;;;1.20;;
20890;SDS011;10605;52.968;8.844;2022-09-09T07:49:30;11.80;;;1.67;;
20890;SDS011;10605;52.968;8.844;2022-09-09T07:52:05;1.60;;;0.82;;
20890;SDS011;10605;52.968;8.844;2022-09-09T07:54:34;2.03;;;1.23;;
20890;SDS011;10605;52.968;8.844;2022-09-09T07:57:02;0.75;;;0.75;;
20890;SDS011;10605;52.968;8.844;2022-09-09T07:59:35;4.25;;;1.10;;
20890;SDS011;10605;52.968;8.844;2022-09-09T08:02:01;4.03;;;1.17;;
20890;SDS011;10605;52.968;8.844;2022-09-09T08:04:29;1.77;;;0.93;;
20890;SDS011;10605;52.968;8.844;2022-09-09T08:07:05;2.63;;;1.20;;
20890;SDS011;10605;52.968;8.844;2022-09-09T08:09:31;3.88;;;1.55;;
20890;SDS011;10605;52.968;8.844;2022-09-09T08:12:02;3.55;;;1.00;;
20890;SDS011;10605;52.968;8.844;2022-09-09T08:14:28;3.22;;;1.20;;
20890;SDS011;10605;52.968;8.844;2022-09-09T08:19:49;2.40;;;1.15;;
20890;SDS011;10605;52.968;8.844;2022-09-09T08:22:15;4.80;;;1.73;;
20890;SDS011;10605;52.968;8.844;2022-09-09T08:24:41;3.50;;;1.33;;
20890;SDS011;10605;52.968;8.844;2022-09-09T08:27:07;2.08;;;0.70;;
20890;SDS011;10605;52.968;8.844;2022-09-09T11:20:23;3.72;;;1.40;;
20890;SDS011;10605;52.968;8.844;2022-09-09T11:27:18;2.05;;;1.23;;
20890;SDS011;10605;52.968;8.844;2022-09-09T11:36:43;9.75;;;1.70;;
20890;SDS011;10605;52.968;8.844;2022-09-09T11:40:00;22.52;;;2.92;;
20890;SDS011;10605;52.968;8.844;2022-09-09T11:45:52;9.98;;;2.13;;
20890;SDS011;10605;52.968;8.844;2022-09-09T11:48:42;3.25;;;1.60;;
20890;SDS011;10605;52.968;8.844;2022-09-09T12:01:58;4.20;;;2.03;;
20890;SDS011;10605;52.968;8.844;2022-09-09T12:22:00;6.03;;;2.85;;
20890;SDS011;10605;52.968;8.844;2022-09-09T12:34:02;4.07;;;2.22;;
20890;SDS011;10605;52.968;8.844;2022-09-09T14:28:36;4.40;;;3.05;;
20890;SDS011;10605;52.968;8.844;2022-09-09T14:35:23;7.82;;;3.33;;
20890;SDS011;10605;52.968;8.844;2022-09-09T14:41:37;6.18;;;3.45;;
20890;SDS011;10605;52.968;8.844;2022-09-09T14:45:13;6.93;;;2.85;;
20890;SDS011;10605;52.968;8.844;2022-09-09T14:48:32;5.43;;;2.70;;
20890;SDS011;10605;52.968;8.844;2022-09-09T14:52:08;4.00;;;2.60;;
20890;SDS011;10605;52.968;8.844;2022-09-09T15:05:57;8.13;;;3.95;;
20890;SDS011;10605;52.968;8.844;2022-09-09T15:13:28;6.07;;;3.05;;
20890;SDS011;10605;52.968;8.844;2022-09-09T15:15:55;4.47;;;3.40;;
20890;SDS011;10605;52.968;8.844;2022-09-09T15:19:18;9.00;;;3.33;;
20890;SDS011;10605;52.968;8.844;2022-09-09T15:26:12;2.25;;;2.05;;
20890;SDS011;10605;52.968;8.844;2022-09-09T15:29:47;7.57;;;2.47;;
20890;SDS011;10605;52.968;8.844;2022-09-09T15:33:27;5.15;;;1.92;;
20890;SDS011;10605;52.968;8.844;2022-09-09T15:53:53;4.18;;;2.10;;
20890;SDS011;10605;52.968;8.844;2022-09-09T16:07:16;6.70;;;2.17;;
20890;SDS011;10605;52.968;8.844;2022-09-09T17:16:52;2.47;;;2.28;;
20890;SDS011;10605;52.968;8.844;2022-09-09T17:25:43;5.15;;;2.50;;
20890;SDS011;10605;52.968;8.844;2022-09-09T17:29:03;3.95;;;2.70;;
20890;SDS011;10605;52.968;8.844;2022-09-09T18:02:28;70.93;;;37.35;;
20890;SDS011;10605;52.968;8.844;2022-09-09T20:20:39;10.90;;;6.97;;
20890;SDS011;10605;52.968;8.844;2022-09-09T20:45:07;7.50;;;6.82;;
20890;SDS011;10605;52.968;8.844;2022-09-09T22:09:10;8.93;;;7.32;;
20890;SDS011;10605;52.968;8.844;2022-09-09T22:11:37;7.70;;;7.10;;
20890;SDS011;10605;52.968;8.844;2022-09-09T22:14:03;9.48;;;6.68;;
20890;SDS011;10605;52.968;8.844;2022-09-09T22:16:28;6.38;;;5.90;;
20890;SDS011;10605;52.968;8.844;2022-09-09T22:18:57;7.53;;;5.93;;
20890;SDS011;10605;52.968;8.844;2022-09-09T22:21:24;5.82;;;5.32;;
20890;SDS011;10605;52.968;8.844;2022-09-09T22:23:56;7.20;;;5.50;;
20890;SDS011;10605;52.968;8.844;2022-09-09T22:26:44;6.10;;;5.38;;
20890;SDS011;10605;52.968;8.844;2022-09-09T22:29:13;6.50;;;5.90;;
20890;SDS011;10605;52.968;8.844;2022-09-09T22:31:39;6.03;;;5.45;;
20890;SDS011;10605;52.968;8.844;2022-09-09T22:34:04;7.80;;;6.35;;
20890;SDS011;10605;52.968;8.844;2022-09-09T22:36:31;10.27;;;5.88;;
20890;SDS011;10605;52.968;8.844;2022-09-09T22:38:57;7.38;;;5.95;;
20890;SDS011;10605;52.968;8.844;2022-09-09T22:41:23;7.20;;;5.40;;
20890;SDS011;10605;52.968;8.844;2022-09-09T22:43:49;7.70;;;5.47;;
20890;SDS011;10605;52.968;8.844;2022-09-09T22:46:15;6.82;;;5.68;;
20890;SDS011;10605;52.968;8.844;2022-09-09T22:48:42;10.57;;;5.47;;
20890;SDS011;10605;52.968;8.844;2022-09-09T22:51:10;6.32;;;5.50;;
20890;SDS011;10605;52.968;8.844;2022-09-09T22:53:37;9.05;;;5.85;;
20890;SDS011;10605;52.968;8.844;2022-09-09T22:56:05;8.25;;;5.47;;
20890;SDS011;10605;52.968;8.844;2022-09-09T22:58:35;6.25;;;5.60;;
20890;SDS011;10605;52.968;8.844;2022-09-09T23:01:12;6.75;;;5.53;;
20890;SDS011;10605;52.968;8.844;2022-09-09T23:03:45;8.27;;;5.03;;
20890;SDS011;10605;52.968;8.844;2022-09-09T23:06:20;8.52;;;4.47;;
20890;SDS011;10605;52.968;8.844;2022-09-09T23:08:47;5.00;;;4.60;;
20890;SDS011;10605;52.968;8.844;2022-09-09T23:11:15;6.68;;;5.43;;
20890;SDS011;10605;52.968;8.844;2022-09-09T23:13:46;6.15;;;4.22;;
20890;SDS011;10605;52.968;8.844;2022-09-09T23:16:19;8.68;;;4.68;;
20890;SDS011;10605;52.968;8.844;2022-09-09T23:18:47;12.02;;;5.03;;
20890;SDS011;10605;52.968;8.844;2022-09-09T23:21:16;4.68;;;4.22;;
20890;SDS011;10605;52.968;8.844;2022-09-09T23:23:46;10.05;;;4.82;;
20890;SDS011;10605;52.968;8.844;2022-09-09T23:26:13;8.25;;;5.07;;
20890;SDS011;10605;52.968;8.844;2022-09-09T23:28:45;5.18;;;4.68;;
20890;SDS011;10605;52.968;8.844;2022-09-09T23:31:13;10.38;;;5.22;;
20890;SDS011;10605;52.968;8.844;2022-09-09T23:33:40;6.90;;;5.30;;
20890;SDS011;10605;52.968;8.844;2022-09-09T23:36:09;4.82;;;4.35;;
20890;SDS011;10605;52.968;8.844;2022-09-09T23:38:37;7.57;;;5.05;;
20890;SDS011;10605;52.968;8.844;2022-09-09T23:41:04;5.00;;;4.18;;
20890;SDS011;10605;52.968;8.844;2022-09-09T23:43:32;11.63;;;5.22;;
20890;SDS011;10605;52.968;8.844;2022-09-09T23:46:00;4.97;;;4.57;;
20890;SDS011;10605;52.968;8.844;2022-09-09T23:48:26;7.60;;;5.15;;
20890;SDS011;10605;52.968;8.844;2022-09-09T23:50:52;7.25;;;4.65;;
20890;SDS011;10605;52.968;8.844;2022-09-09T23:53:19;7.38;;;5.25;;
20890;SDS011;10605;52.968;8.844;2022-09-09T23:55:45;7.07;;;5.30;;
20890;SDS011;10605;52.968;8.844;2022-09-09T23:58:11;7.70;;;4.85;;
